West Poplarville, Mississippi
Current Conditions -  °F | °C
As of 3:53 PM on Saturday 20 Dec 2014 (Local Time) from KHBG Reporting Station
Overcast Overcast  
Wind Chill: 53°   Ceiling: 1700
Heat Index: 53°   Visibility: 10mi
Dew Point: 46°   Wind: 7mph
Humidity: 77%   Direction: 10°N
Pressure: 30.15"   Gusts: NA
Location:  30.8781°N, 89.5858°W
Report Text: KHBG 202153Z AUTO 01006KT 10SM OVC017 12/08 A3015 RMK AO2 SLP209 T01170078
Loading
Personal Weather Stations






























Interactive Weather Map New forecast layout! Learn more

10-Day Weather Forecast

Advertisements
Track Severe Weather on mobile